sensor_id;sensor_type;location;lat;lon;timestamp;P1;durP1;ratioP1;P2;durP2;ratioP2
11064;SDS011;5585;52.530;7.320;2023-06-22T00:00:10;7.57;;;6.88;;
11064;SDS011;5585;52.530;7.320;2023-06-22T00:02:37;7.90;;;7.07;;
11064;SDS011;5585;52.530;7.320;2023-06-22T00:05:04;9.18;;;8.25;;
11064;SDS011;5585;52.530;7.320;2023-06-22T00:07:31;8.02;;;7.22;;
11064;SDS011;5585;52.530;7.320;2023-06-22T00:09:57;8.35;;;7.55;;
11064;SDS011;5585;52.530;7.320;2023-06-22T00:12:24;8.98;;;8.00;;
11064;SDS011;5585;52.530;7.320;2023-06-22T00:14:52;7.82;;;7.13;;
11064;SDS011;5585;52.530;7.320;2023-06-22T00:17:19;8.63;;;7.82;;
11064;SDS011;5585;52.530;7.320;2023-06-22T00:19:46;9.38;;;8.48;;
11064;SDS011;5585;52.530;7.320;2023-06-22T00:22:13;8.88;;;8.07;;
11064;SDS011;5585;52.530;7.320;2023-06-22T00:24:39;9.35;;;8.38;;
11064;SDS011;5585;52.530;7.320;2023-06-22T00:27:06;8.93;;;8.00;;
11064;SDS011;5585;52.530;7.320;2023-06-22T00:29:33;8.50;;;7.80;;
11064;SDS011;5585;52.530;7.320;2023-06-22T00:32:01;9.63;;;8.20;;
11064;SDS011;5585;52.530;7.320;2023-06-22T00:34:28;9.95;;;9.02;;
11064;SDS011;5585;52.530;7.320;2023-06-22T00:36:54;10.95;;;9.95;;
11064;SDS011;5585;52.530;7.320;2023-06-22T00:39:21;12.02;;;10.82;;
11064;SDS011;5585;52.530;7.320;2023-06-22T00:41:48;9.63;;;8.15;;
11064;SDS011;5585;52.530;7.320;2023-06-22T00:44:14;10.65;;;9.65;;
11064;SDS011;5585;52.530;7.320;2023-06-22T00:46:41;10.98;;;9.93;;
11064;SDS011;5585;52.530;7.320;2023-06-22T00:49:09;13.20;;;11.90;;
11064;SDS011;5585;52.530;7.320;2023-06-22T00:51:35;10.77;;;9.32;;
11064;SDS011;5585;52.530;7.320;2023-06-22T00:54:03;11.27;;;10.18;;
11064;SDS011;5585;52.530;7.320;2023-06-22T00:56:30;11.65;;;10.48;;
11064;SDS011;5585;52.530;7.320;2023-06-22T00:58:57;10.65;;;9.65;;
11064;SDS011;5585;52.530;7.320;2023-06-22T01:01:24;10.32;;;9.38;;
11064;SDS011;5585;52.530;7.320;2023-06-22T01:03:51;10.73;;;9.63;;
11064;SDS011;5585;52.530;7.320;2023-06-22T01:06:21;10.73;;;9.63;;
11064;SDS011;5585;52.530;7.320;2023-06-22T01:08:53;11.43;;;10.25;;
11064;SDS011;5585;52.530;7.320;2023-06-22T01:11:24;11.63;;;10.43;;
11064;SDS011;5585;52.530;7.320;2023-06-22T01:13:54;10.10;;;9.18;;
11064;SDS011;5585;52.530;7.320;2023-06-22T01:16:24;10.82;;;9.82;;
11064;SDS011;5585;52.530;7.320;2023-06-22T01:18:52;9.90;;;8.90;;
11064;SDS011;5585;52.530;7.320;2023-06-22T01:21:21;11.20;;;10.07;;
11064;SDS011;5585;52.530;7.320;2023-06-22T01:23:51;11.77;;;10.50;;
11064;SDS011;5585;52.530;7.320;2023-06-22T01:26:21;11.80;;;10.70;;
11064;SDS011;5585;52.530;7.320;2023-06-22T01:28:50;13.10;;;11.82;;
11064;SDS011;5585;52.530;7.320;2023-06-22T01:31:18;13.90;;;12.23;;
11064;SDS011;5585;52.530;7.320;2023-06-22T01:33:47;12.32;;;11.23;;
11064;SDS011;5585;52.530;7.320;2023-06-22T01:36:14;11.23;;;10.15;;
11064;SDS011;5585;52.530;7.320;2023-06-22T01:38:42;11.00;;;9.90;;
11064;SDS011;5585;52.530;7.320;2023-06-22T01:41:10;10.27;;;9.38;;
11064;SDS011;5585;52.530;7.320;2023-06-22T01:43:36;12.45;;;11.23;;
11064;SDS011;5585;52.530;7.320;2023-06-22T01:46:04;12.73;;;11.43;;
11064;SDS011;5585;52.530;7.320;2023-06-22T01:48:31;12.13;;;11.02;;
11064;SDS011;5585;52.530;7.320;2023-06-22T01:50:58;13.95;;;12.25;;
11064;SDS011;5585;52.530;7.320;2023-06-22T01:53:25;14.57;;;13.18;;
11064;SDS011;5585;52.530;7.320;2023-06-22T01:55:51;13.10;;;11.80;;
11064;SDS011;5585;52.530;7.320;2023-06-22T01:58:18;15.52;;;14.02;;
11064;SDS011;5585;52.530;7.320;2023-06-22T02:00:48;13.90;;;12.50;;
11064;SDS011;5585;52.530;7.320;2023-06-22T02:03:17;11.68;;;10.57;;
11064;SDS011;5585;52.530;7.320;2023-06-22T02:05:45;12.23;;;11.07;;
11064;SDS011;5585;52.530;7.320;2023-06-22T02:08:15;13.18;;;11.88;;
11064;SDS011;5585;52.530;7.320;2023-06-22T02:10:43;12.55;;;11.45;;
11064;SDS011;5585;52.530;7.320;2023-06-22T02:13:11;13.93;;;12.63;;
11064;SDS011;5585;52.530;7.320;2023-06-22T02:15:39;14.50;;;13.10;;
11064;SDS011;5585;52.530;7.320;2023-06-22T02:18:05;12.98;;;11.77;;
11064;SDS011;5585;52.530;7.320;2023-06-22T02:20:34;13.95;;;12.65;;
11064;SDS011;5585;52.530;7.320;2023-06-22T02:23:02;14.90;;;13.38;;
11064;SDS011;5585;52.530;7.320;2023-06-22T02:25:28;16.23;;;14.27;;
11064;SDS011;5585;52.530;7.320;2023-06-22T02:27:55;13.48;;;12.27;;
11064;SDS011;5585;52.530;7.320;2023-06-22T02:30:21;12.95;;;11.55;;
11064;SDS011;5585;52.530;7.320;2023-06-22T02:32:48;11.88;;;10.68;;
11064;SDS011;5585;52.530;7.320;2023-06-22T02:35:16;12.35;;;11.15;;
11064;SDS011;5585;52.530;7.320;2023-06-22T02:37:44;13.25;;;11.85;;
11064;SDS011;5585;52.530;7.320;2023-06-22T02:40:11;13.23;;;11.93;;
11064;SDS011;5585;52.530;7.320;2023-06-22T02:42:39;13.30;;;11.90;;
11064;SDS011;5585;52.530;7.320;2023-06-22T02:45:05;15.65;;;14.18;;
11064;SDS011;5585;52.530;7.320;2023-06-22T02:47:32;14.80;;;13.40;;
11064;SDS011;5585;52.530;7.320;2023-06-22T02:49:59;14.25;;;12.85;;
11064;SDS011;5585;52.530;7.320;2023-06-22T02:52:25;15.27;;;13.02;;
11064;SDS011;5585;52.530;7.320;2023-06-22T02:54:53;14.95;;;13.45;;
11064;SDS011;5585;52.530;7.320;2023-06-22T02:57:19;14.73;;;13.23;;
11064;SDS011;5585;52.530;7.320;2023-06-22T02:59:46;15.00;;;13.20;;
11064;SDS011;5585;52.530;7.320;2023-06-22T03:02:12;15.10;;;13.60;;
11064;SDS011;5585;52.530;7.320;2023-06-22T03:04:39;16.05;;;14.45;;
11064;SDS011;5585;52.530;7.320;2023-06-22T03:07:05;14.07;;;12.73;;
11064;SDS011;5585;52.530;7.320;2023-06-22T03:09:32;15.20;;;13.70;;
11064;SDS011;5585;52.530;7.320;2023-06-22T03:12:00;15.35;;;13.82;;
11064;SDS011;5585;52.530;7.320;2023-06-22T03:14:27;18.13;;;16.25;;
11064;SDS011;5585;52.530;7.320;2023-06-22T03:16:53;16.23;;;14.68;;
11064;SDS011;5585;52.530;7.320;2023-06-22T03:19:26;17.00;;;15.40;;
11064;SDS011;5585;52.530;7.320;2023-06-22T03:21:54;16.73;;;15.13;;
11064;SDS011;5585;52.530;7.320;2023-06-22T03:24:21;18.52;;;16.67;;
11064;SDS011;5585;52.530;7.320;2023-06-22T03:26:47;16.45;;;14.85;;
11064;SDS011;5585;52.530;7.320;2023-06-22T03:29:15;16.35;;;14.35;;
11064;SDS011;5585;52.530;7.320;2023-06-22T03:31:42;19.50;;;17.48;;
11064;SDS011;5585;52.530;7.320;2023-06-22T03:34:08;16.98;;;15.35;;
11064;SDS011;5585;52.530;7.320;2023-06-22T03:36:34;17.60;;;15.90;;
11064;SDS011;5585;52.530;7.320;2023-06-22T03:39:01;14.80;;;13.40;;
11064;SDS011;5585;52.530;7.320;2023-06-22T03:41:28;13.70;;;12.48;;
11064;SDS011;5585;52.530;7.320;2023-06-22T03:43:54;16.17;;;14.50;;
11064;SDS011;5585;52.530;7.320;2023-06-22T03:46:22;17.13;;;15.35;;
11064;SDS011;5585;52.530;7.320;2023-06-22T03:48:49;18.27;;;16.58;;
11064;SDS011;5585;52.530;7.320;2023-06-22T03:51:15;15.63;;;14.20;;
11064;SDS011;5585;52.530;7.320;2023-06-22T03:53:42;17.83;;;16.08;;
11064;SDS011;5585;52.530;7.320;2023-06-22T03:56:08;18.85;;;16.92;;
11064;SDS011;5585;52.530;7.320;2023-06-22T03:58:35;16.92;;;15.23;;
11064;SDS011;5585;52.530;7.320;2023-06-22T04:01:07;18.92;;;17.00;;
11064;SDS011;5585;52.530;7.320;2023-06-22T04:03:38;19.58;;;16.80;;
11064;SDS011;5585;52.530;7.320;2023-06-22T04:06:04;19.70;;;17.70;;
11064;SDS011;5585;52.530;7.320;2023-06-22T04:08:31;19.13;;;17.25;;
11064;SDS011;5585;52.530;7.320;2023-06-22T04:10:57;18.98;;;17.08;;
11064;SDS011;5585;52.530;7.320;2023-06-22T04:13:24;20.10;;;18.05;;
11064;SDS011;5585;52.530;7.320;2023-06-22T04:15:50;18.65;;;16.88;;
11064;SDS011;5585;52.530;7.320;2023-06-22T04:18:17;18.50;;;16.70;;
11064;SDS011;5585;52.530;7.320;2023-06-22T04:20:45;16.52;;;14.90;;
11064;SDS011;5585;52.530;7.320;2023-06-22T04:23:12;19.25;;;17.30;;
11064;SDS011;5585;52.530;7.320;2023-06-22T04:25:38;18.45;;;16.75;;
11064;SDS011;5585;52.530;7.320;2023-06-22T04:28:05;20.13;;;18.02;;
11064;SDS011;5585;52.530;7.320;2023-06-22T04:30:32;18.95;;;17.15;;
11064;SDS011;5585;52.530;7.320;2023-06-22T04:32:58;20.15;;;18.17;;
11064;SDS011;5585;52.530;7.320;2023-06-22T04:35:25;18.23;;;16.42;;
11064;SDS011;5585;52.530;7.320;2023-06-22T04:37:55;19.15;;;17.27;;
11064;SDS011;5585;52.530;7.320;2023-06-22T04:40:22;16.42;;;14.82;;
11064;SDS011;5585;52.530;7.320;2023-06-22T04:42:48;18.40;;;16.58;;
11064;SDS011;5585;52.530;7.320;2023-06-22T04:45:19;19.33;;;17.42;;
11064;SDS011;5585;52.530;7.320;2023-06-22T04:47:45;17.45;;;15.65;;
11064;SDS011;5585;52.530;7.320;2023-06-22T04:50:12;7.05;;;6.10;;
11064;SDS011;5585;52.530;7.320;2023-06-22T04:52:38;14.63;;;10.52;;
11064;SDS011;5585;52.530;7.320;2023-06-22T04:55:07;13.38;;;11.98;;
11064;SDS011;5585;52.530;7.320;2023-06-22T04:57:34;14.18;;;12.68;;
11064;SDS011;5585;52.530;7.320;2023-06-22T05:00:00;13.65;;;12.10;;
11064;SDS011;5585;52.530;7.320;2023-06-22T05:02:37;14.55;;;13.05;;
11064;SDS011;5585;52.530;7.320;2023-06-22T05:05:04;15.48;;;13.88;;
11064;SDS011;5585;52.530;7.320;2023-06-22T05:07:32;15.10;;;13.52;;
11064;SDS011;5585;52.530;7.320;2023-06-22T05:09:59;17.25;;;15.43;;
11064;SDS011;5585;52.530;7.320;2023-06-22T05:12:27;13.68;;;12.38;;
11064;SDS011;5585;52.530;7.320;2023-06-22T05:14:53;19.35;;;17.63;;
11064;SDS011;5585;52.530;7.320;2023-06-22T05:17:20;19.73;;;17.73;;
11064;SDS011;5585;52.530;7.320;2023-06-22T05:19:47;20.02;;;16.65;;
11064;SDS011;5585;52.530;7.320;2023-06-22T05:22:14;17.27;;;15.55;;
11064;SDS011;5585;52.530;7.320;2023-06-22T05:24:41;16.00;;;14.40;;
11064;SDS011;5585;52.530;7.320;2023-06-22T05:27:07;15.35;;;13.85;;
11064;SDS011;5585;52.530;7.320;2023-06-22T05:29:35;16.35;;;14.65;;
11064;SDS011;5585;52.530;7.320;2023-06-22T05:32:02;15.45;;;13.95;;
11064;SDS011;5585;52.530;7.320;2023-06-22T05:34:28;15.98;;;14.27;;
11064;SDS011;5585;52.530;7.320;2023-06-22T05:36:55;17.52;;;15.85;;
11064;SDS011;5585;52.530;7.320;2023-06-22T05:39:23;17.73;;;15.98;;
11064;SDS011;5585;52.530;7.320;2023-06-22T05:41:50;16.95;;;15.35;;
11064;SDS011;5585;52.530;7.320;2023-06-22T05:44:17;15.23;;;13.82;;
11064;SDS011;5585;52.530;7.320;2023-06-22T05:46:45;14.60;;;12.23;;
11064;SDS011;5585;52.530;7.320;2023-06-22T05:49:11;16.27;;;14.57;;
11064;SDS011;5585;52.530;7.320;2023-06-22T05:51:38;14.07;;;12.68;;
11064;SDS011;5585;52.530;7.320;2023-06-22T05:54:05;16.35;;;14.85;;
11064;SDS011;5585;52.530;7.320;2023-06-22T05:56:33;14.88;;;13.38;;
11064;SDS011;5585;52.530;7.320;2023-06-22T05:58:59;16.13;;;14.43;;
11064;SDS011;5585;52.530;7.320;2023-06-22T06:01:26;14.05;;;12.40;;
11064;SDS011;5585;52.530;7.320;2023-06-22T06:03:53;14.85;;;13.38;;
11064;SDS011;5585;52.530;7.320;2023-06-22T06:06:20;10.25;;;9.35;;
11064;SDS011;5585;52.530;7.320;2023-06-22T06:08:49;13.73;;;12.32;;
11064;SDS011;5585;52.530;7.320;2023-06-22T06:11:15;10.18;;;9.27;;
11064;SDS011;5585;52.530;7.320;2023-06-22T06:13:42;11.57;;;10.38;;
11064;SDS011;5585;52.530;7.320;2023-06-22T06:16:08;11.85;;;10.68;;
11064;SDS011;5585;52.530;7.320;2023-06-22T06:18:35;12.95;;;11.68;;
11064;SDS011;5585;52.530;7.320;2023-06-22T06:21:03;13.40;;;12.02;;
11064;SDS011;5585;52.530;7.320;2023-06-22T06:23:30;11.57;;;10.38;;
11064;SDS011;5585;52.530;7.320;2023-06-22T06:25:56;12.70;;;11.45;;
11064;SDS011;5585;52.530;7.320;2023-06-22T06:28:24;10.60;;;9.27;;
11064;SDS011;5585;52.530;7.320;2023-06-22T06:30:51;10.50;;;9.48;;
11064;SDS011;5585;52.530;7.320;2023-06-22T06:33:17;11.32;;;10.23;;
11064;SDS011;5585;52.530;7.320;2023-06-22T06:35:44;10.77;;;9.10;;
11064;SDS011;5585;52.530;7.320;2023-06-22T06:38:12;7.45;;;6.75;;
11064;SDS011;5585;52.530;7.320;2023-06-22T06:40:38;8.38;;;7.57;;
11064;SDS011;5585;52.530;7.320;2023-06-22T06:43:05;12.02;;;10.80;;
11064;SDS011;5585;52.530;7.320;2023-06-22T06:45:31;9.93;;;8.93;;
11064;SDS011;5585;52.530;7.320;2023-06-22T06:47:59;9.65;;;8.40;;
11064;SDS011;5585;52.530;7.320;2023-06-22T06:50:26;9.13;;;8.13;;
11064;SDS011;5585;52.530;7.320;2023-06-22T06:52:52;9.90;;;8.90;;
11064;SDS011;5585;52.530;7.320;2023-06-22T06:55:21;10.05;;;8.73;;
11064;SDS011;5585;52.530;7.320;2023-06-22T06:57:50;7.97;;;7.18;;
11064;SDS011;5585;52.530;7.320;2023-06-22T07:00:18;8.35;;;6.95;;
11064;SDS011;5585;52.530;7.320;2023-06-22T07:02:44;7.20;;;6.47;;
11064;SDS011;5585;52.530;7.320;2023-06-22T07:05:13;9.27;;;7.78;;
11064;SDS011;5585;52.530;7.320;2023-06-22T07:07:39;7.45;;;6.75;;
11064;SDS011;5585;52.530;7.320;2023-06-22T07:10:07;7.20;;;6.50;;
11064;SDS011;5585;52.530;7.320;2023-06-22T07:12:35;8.07;;;6.57;;
11064;SDS011;5585;52.530;7.320;2023-06-22T07:15:02;7.95;;;7.15;;
11064;SDS011;5585;52.530;7.320;2023-06-22T07:17:28;8.63;;;7.47;;
11064;SDS011;5585;52.530;7.320;2023-06-22T07:19:55;5.95;;;5.38;;
11064;SDS011;5585;52.530;7.320;2023-06-22T07:22:21;7.47;;;6.65;;
11064;SDS011;5585;52.530;7.320;2023-06-22T07:24:48;9.45;;;6.22;;
11064;SDS011;5585;52.530;7.320;2023-06-22T07:27:15;6.18;;;5.53;;
11064;SDS011;5585;52.530;7.320;2023-06-22T07:29:45;7.80;;;6.47;;
11064;SDS011;5585;52.530;7.320;2023-06-22T07:32:12;6.60;;;5.90;;
11064;SDS011;5585;52.530;7.320;2023-06-22T07:34:38;6.68;;;5.95;;
11064;SDS011;5585;52.530;7.320;2023-06-22T07:37:05;6.50;;;5.90;;
11064;SDS011;5585;52.530;7.320;2023-06-22T07:39:31;9.40;;;7.85;;
11064;SDS011;5585;52.530;7.320;2023-06-22T07:41:58;7.82;;;7.03;;
11064;SDS011;5585;52.530;7.320;2023-06-22T07:44:24;6.13;;;5.53;;
11064;SDS011;5585;52.530;7.320;2023-06-22T07:46:52;5.82;;;5.25;;
11064;SDS011;5585;52.530;7.320;2023-06-22T07:49:19;6.82;;;6.13;;
11064;SDS011;5585;52.530;7.320;2023-06-22T07:51:46;6.88;;;6.18;;
11064;SDS011;5585;52.530;7.320;2023-06-22T07:54:12;7.32;;;5.70;;
11064;SDS011;5585;52.530;7.320;2023-06-22T07:56:40;6.10;;;5.60;;
11064;SDS011;5585;52.530;7.320;2023-06-22T07:59:08;6.95;;;5.38;;
11064;SDS011;5585;52.530;7.320;2023-06-22T08:01:34;7.20;;;6.50;;
11064;SDS011;5585;52.530;7.320;2023-06-22T08:04:02;6.20;;;5.30;;
11064;SDS011;5585;52.530;7.320;2023-06-22T08:06:30;6.10;;;5.50;;
11064;SDS011;5585;52.530;7.320;2023-06-22T08:08:57;5.85;;;5.25;;
11064;SDS011;5585;52.530;7.320;2023-06-22T08:11:24;6.15;;;4.90;;
11064;SDS011;5585;52.530;7.320;2023-06-22T08:13:50;4.30;;;3.90;;
11064;SDS011;5585;52.530;7.320;2023-06-22T08:16:17;5.22;;;4.55;;
11064;SDS011;5585;52.530;7.320;2023-06-22T08:18:43;5.40;;;4.55;;
11064;SDS011;5585;52.530;7.320;2023-06-22T08:21:11;7.07;;;4.00;;
11064;SDS011;5585;52.530;7.320;2023-06-22T08:23:38;5.25;;;4.47;;
11064;SDS011;5585;52.530;7.320;2023-06-22T08:26:04;5.60;;;4.95;;
11064;SDS011;5585;52.530;7.320;2023-06-22T08:28:31;5.22;;;4.72;;
11064;SDS011;5585;52.530;7.320;2023-06-22T08:30:57;5.70;;;5.20;;
11064;SDS011;5585;52.530;7.320;2023-06-22T08:33:24;4.85;;;4.35;;
11064;SDS011;5585;52.530;7.320;2023-06-22T08:35:53;6.95;;;6.25;;
11064;SDS011;5585;52.530;7.320;2023-06-22T08:38:21;4.90;;;4.40;;
11064;SDS011;5585;52.530;7.320;2023-06-22T08:40:48;7.30;;;5.45;;
11064;SDS011;5585;52.530;7.320;2023-06-22T08:43:14;4.88;;;4.38;;
11064;SDS011;5585;52.530;7.320;2023-06-22T08:45:41;4.15;;;3.67;;
11064;SDS011;5585;52.530;7.320;2023-06-22T08:48:07;5.32;;;4.43;;
11064;SDS011;5585;52.530;7.320;2023-06-22T08:50:34;5.95;;;4.45;;
11064;SDS011;5585;52.530;7.320;2023-06-22T08:53:00;5.70;;;5.10;;
11064;SDS011;5585;52.530;7.320;2023-06-22T08:55:28;5.10;;;4.60;;
11064;SDS011;5585;52.530;7.320;2023-06-22T08:57:54;5.72;;;5.15;;
11064;SDS011;5585;52.530;7.320;2023-06-22T09:00:21;4.18;;;3.85;;
11064;SDS011;5585;52.530;7.320;2023-06-22T09:02:48;4.82;;;4.32;;
11064;SDS011;5585;52.530;7.320;2023-06-22T09:05:14;4.85;;;4.35;;
11064;SDS011;5585;52.530;7.320;2023-06-22T09:07:41;5.35;;;4.85;;
11064;SDS011;5585;52.530;7.320;2023-06-22T09:10:08;6.20;;;5.05;;
11064;SDS011;5585;52.530;7.320;2023-06-22T09:12:36;6.20;;;5.10;;
11064;SDS011;5585;52.530;7.320;2023-06-22T09:15:03;7.00;;;6.28;;
11064;SDS011;5585;52.530;7.320;2023-06-22T09:17:31;5.00;;;4.60;;
11064;SDS011;5585;52.530;7.320;2023-06-22T09:19:59;5.72;;;5.13;;
11064;SDS011;5585;52.530;7.320;2023-06-22T09:22:25;5.68;;;5.18;;
11064;SDS011;5585;52.530;7.320;2023-06-22T09:24:54;5.80;;;5.20;;
11064;SDS011;5585;52.530;7.320;2023-06-22T09:27:20;5.65;;;4.03;;
11064;SDS011;5585;52.530;7.320;2023-06-22T09:29:48;6.28;;;5.03;;
11064;SDS011;5585;52.530;7.320;2023-06-22T09:32:15;4.68;;;4.28;;
11064;SDS011;5585;52.530;7.320;2023-06-22T09:34:41;5.82;;;5.22;;
11064;SDS011;5585;52.530;7.320;2023-06-22T09:37:08;5.97;;;5.35;;
11064;SDS011;5585;52.530;7.320;2023-06-22T09:39:34;8.80;;;6.55;;
11064;SDS011;5585;52.530;7.320;2023-06-22T09:42:02;5.35;;;4.80;;
11064;SDS011;5585;52.530;7.320;2023-06-22T09:44:28;7.53;;;5.70;;
11064;SDS011;5585;52.530;7.320;2023-06-22T09:46:56;6.90;;;6.30;;
11064;SDS011;5585;52.530;7.320;2023-06-22T09:49:23;9.30;;;6.50;;
11064;SDS011;5585;52.530;7.320;2023-06-22T09:51:49;6.38;;;5.78;;
11064;SDS011;5585;52.530;7.320;2023-06-22T09:54:16;5.85;;;5.25;;
11064;SDS011;5585;52.530;7.320;2023-06-22T09:56:42;5.18;;;4.28;;
11064;SDS011;5585;52.530;7.320;2023-06-22T09:59:09;5.82;;;4.97;;
11064;SDS011;5585;52.530;7.320;2023-06-22T10:01:35;6.32;;;5.50;;
11064;SDS011;5585;52.530;7.320;2023-06-22T10:04:03;5.30;;;4.75;;
11064;SDS011;5585;52.530;7.320;2023-06-22T10:06:30;6.60;;;6.10;;
11064;SDS011;5585;52.530;7.320;2023-06-22T10:08:56;8.45;;;7.13;;
11064;SDS011;5585;52.530;7.320;2023-06-22T10:11:23;4.97;;;4.45;;
11064;SDS011;5585;52.530;7.320;2023-06-22T10:13:54;4.93;;;4.45;;
11064;SDS011;5585;52.530;7.320;2023-06-22T10:16:20;6.70;;;6.10;;
11064;SDS011;5585;52.530;7.320;2023-06-22T10:18:47;5.95;;;5.18;;
11064;SDS011;5585;52.530;7.320;2023-06-22T10:21:15;6.45;;;5.15;;
11064;SDS011;5585;52.530;7.320;2023-06-22T10:23:41;7.07;;;5.95;;
11064;SDS011;5585;52.530;7.320;2023-06-22T10:26:08;5.00;;;4.60;;
11064;SDS011;5585;52.530;7.320;2023-06-22T10:28:34;5.15;;;4.65;;
11064;SDS011;5585;52.530;7.320;2023-06-22T10:31:01;5.82;;;5.32;;
11064;SDS011;5585;52.530;7.320;2023-06-22T10:33:27;6.43;;;5.82;;
11064;SDS011;5585;52.530;7.320;2023-06-22T10:35:54;9.25;;;6.50;;
11064;SDS011;5585;52.530;7.320;2023-06-22T10:38:21;6.78;;;6.03;;
11064;SDS011;5585;52.530;7.320;2023-06-22T10:40:48;7.40;;;6.78;;
11064;SDS011;5585;52.530;7.320;2023-06-22T10:43:14;5.35;;;4.90;;
11064;SDS011;5585;52.530;7.320;2023-06-22T10:45:41;7.05;;;6.35;;
11064;SDS011;5585;52.530;7.320;2023-06-22T10:48:07;8.50;;;7.70;;
11064;SDS011;5585;52.530;7.320;2023-06-22T10:50:34;6.22;;;5.68;;
11064;SDS011;5585;52.530;7.320;2023-06-22T10:53:00;8.95;;;8.15;;
11064;SDS011;5585;52.530;7.320;2023-06-22T10:55:28;7.75;;;6.95;;
11064;SDS011;5585;52.530;7.320;2023-06-22T10:57:55;5.75;;;5.20;;
11064;SDS011;5585;52.530;7.320;2023-06-22T11:00:21;8.45;;;7.65;;
11064;SDS011;5585;52.530;7.320;2023-06-22T11:02:48;6.47;;;5.88;;
11064;SDS011;5585;52.530;7.320;2023-06-22T11:05:14;5.75;;;5.22;;
11064;SDS011;5585;52.530;7.320;2023-06-22T11:07:41;7.63;;;6.93;;
11064;SDS011;5585;52.530;7.320;2023-06-22T11:10:08;7.95;;;7.20;;
11064;SDS011;5585;52.530;7.320;2023-06-22T11:12:36;6.93;;;6.20;;
11064;SDS011;5585;52.530;7.320;2023-06-22T11:15:03;8.43;;;7.63;;
11064;SDS011;5585;52.530;7.320;2023-06-22T11:17:29;6.45;;;5.68;;
11064;SDS011;5585;52.530;7.320;2023-06-22T11:19:56;7.00;;;6.40;;
11064;SDS011;5585;52.530;7.320;2023-06-22T11:22:24;8.68;;;7.57;;
11064;SDS011;5585;52.530;7.320;2023-06-22T11:24:50;8.20;;;7.40;;
11064;SDS011;5585;52.530;7.320;2023-06-22T11:27:17;7.50;;;6.80;;
11064;SDS011;5585;52.530;7.320;2023-06-22T11:29:46;8.20;;;7.38;;
11064;SDS011;5585;52.530;7.320;2023-06-22T11:32:12;7.45;;;6.75;;
11064;SDS011;5585;52.530;7.320;2023-06-22T11:34:39;8.85;;;7.93;;
11064;SDS011;5585;52.530;7.320;2023-06-22T11:37:06;8.93;;;8.13;;
11064;SDS011;5585;52.530;7.320;2023-06-22T11:39:32;8.05;;;7.35;;
11064;SDS011;5585;52.530;7.320;2023-06-22T11:41:59;7.60;;;6.90;;
11064;SDS011;5585;52.530;7.320;2023-06-22T11:44:25;8.15;;;6.60;;
11064;SDS011;5585;52.530;7.320;2023-06-22T11:46:53;6.32;;;5.32;;
11064;SDS011;5585;52.530;7.320;2023-06-22T11:49:19;8.98;;;8.18;;
11064;SDS011;5585;52.530;7.320;2023-06-22T11:51:46;6.90;;;6.20;;
11064;SDS011;5585;52.530;7.320;2023-06-22T11:54:12;7.35;;;6.65;;
11064;SDS011;5585;52.530;7.320;2023-06-22T11:56:39;5.90;;;4.90;;
11064;SDS011;5585;52.530;7.320;2023-06-22T11:59:05;6.47;;;5.97;;
11064;SDS011;5585;52.530;7.320;2023-06-22T12:01:32;6.00;;;5.40;;
11064;SDS011;5585;52.530;7.320;2023-06-22T12:04:00;5.97;;;5.47;;
11064;SDS011;5585;52.530;7.320;2023-06-22T12:06:30;6.20;;;5.60;;
11064;SDS011;5585;52.530;7.320;2023-06-22T12:08:57;5.95;;;5.35;;
11064;SDS011;5585;52.530;7.320;2023-06-22T12:11:23;8.88;;;7.63;;
11064;SDS011;5585;52.530;7.320;2023-06-22T12:13:50;8.50;;;7.60;;
11064;SDS011;5585;52.530;7.320;2023-06-22T12:16:16;8.23;;;7.43;;
11064;SDS011;5585;52.530;7.320;2023-06-22T12:18:43;7.22;;;6.53;;
11064;SDS011;5585;52.530;7.320;2023-06-22T12:21:10;6.93;;;6.30;;
11064;SDS011;5585;52.530;7.320;2023-06-22T12:23:37;6.80;;;6.20;;
11064;SDS011;5585;52.530;7.320;2023-06-22T12:26:04;6.88;;;6.28;;
11064;SDS011;5585;52.530;7.320;2023-06-22T12:28:30;7.35;;;6.40;;
11064;SDS011;5585;52.530;7.320;2023-06-22T12:30:57;7.18;;;5.97;;
11064;SDS011;5585;52.530;7.320;2023-06-22T12:33:23;6.72;;;6.13;;
11064;SDS011;5585;52.530;7.320;2023-06-22T12:35:49;6.63;;;6.03;;
11064;SDS011;5585;52.530;7.320;2023-06-22T12:38:17;4.93;;;4.53;;
11064;SDS011;5585;52.530;7.320;2023-06-22T12:40:44;5.40;;;4.90;;
11064;SDS011;5585;52.530;7.320;2023-06-22T12:43:12;5.82;;;5.22;;
11064;SDS011;5585;52.530;7.320;2023-06-22T12:45:38;5.50;;;4.97;;
11064;SDS011;5585;52.530;7.320;2023-06-22T12:48:05;6.25;;;5.72;;
11064;SDS011;5585;52.530;7.320;2023-06-22T12:50:33;6.45;;;5.93;;
11064;SDS011;5585;52.530;7.320;2023-06-22T12:53:00;6.05;;;5.45;;
11064;SDS011;5585;52.530;7.320;2023-06-22T12:55:29;8.32;;;7.53;;
11064;SDS011;5585;52.530;7.320;2023-06-22T12:57:56;6.38;;;5.78;;
11064;SDS011;5585;52.530;7.320;2023-06-22T13:00:22;5.93;;;5.40;;
11064;SDS011;5585;52.530;7.320;2023-06-22T13:02:49;7.82;;;7.10;;
11064;SDS011;5585;52.530;7.320;2023-06-22T13:05:15;6.28;;;5.70;;
11064;SDS011;5585;52.530;7.320;2023-06-22T13:07:42;6.60;;;6.00;;
11064;SDS011;5585;52.530;7.320;2023-06-22T13:10:09;5.70;;;5.20;;
11064;SDS011;5585;52.530;7.320;2023-06-22T13:12:36;5.30;;;4.80;;
11064;SDS011;5585;52.530;7.320;2023-06-22T13:15:03;6.68;;;6.05;;
11064;SDS011;5585;52.530;7.320;2023-06-22T13:17:30;6.40;;;5.80;;
11064;SDS011;5585;52.530;7.320;2023-06-22T13:19:56;8.07;;;7.28;;
11064;SDS011;5585;52.530;7.320;2023-06-22T13:22:29;6.30;;;5.70;;
11064;SDS011;5585;52.530;7.320;2023-06-22T13:24:56;7.10;;;6.40;;
11064;SDS011;5585;52.530;7.320;2023-06-22T13:27:22;5.38;;;4.82;;
11064;SDS011;5585;52.530;7.320;2023-06-22T13:29:50;6.50;;;5.47;;
11064;SDS011;5585;52.530;7.320;2023-06-22T13:32:17;6.65;;;6.05;;
11064;SDS011;5585;52.530;7.320;2023-06-22T13:34:43;9.27;;;7.53;;
11064;SDS011;5585;52.530;7.320;2023-06-22T13:37:10;7.63;;;6.93;;
11064;SDS011;5585;52.530;7.320;2023-06-22T13:39:36;7.13;;;6.32;;
11064;SDS011;5585;52.530;7.320;2023-06-22T13:42:03;8.43;;;7.50;;
11064;SDS011;5585;52.530;7.320;2023-06-22T13:44:30;7.25;;;6.55;;
11064;SDS011;5585;52.530;7.320;2023-06-22T13:46:58;9.55;;;8.07;;
11064;SDS011;5585;52.530;7.320;2023-06-22T13:49:24;8.35;;;7.65;;
11064;SDS011;5585;52.530;7.320;2023-06-22T13:51:51;10.15;;;8.90;;
11064;SDS011;5585;52.530;7.320;2023-06-22T13:54:17;8.20;;;6.95;;
11064;SDS011;5585;52.530;7.320;2023-06-22T13:56:44;10.15;;;9.13;;
11064;SDS011;5585;52.530;7.320;2023-06-22T13:59:10;8.95;;;8.05;;
11064;SDS011;5585;52.530;7.320;2023-06-22T14:01:37;9.40;;;8.50;;
11064;SDS011;5585;52.530;7.320;2023-06-22T14:04:06;8.23;;;7.43;;
11064;SDS011;5585;52.530;7.320;2023-06-22T14:06:32;9.57;;;8.73;;
11064;SDS011;5585;52.530;7.320;2023-06-22T14:08:59;11.63;;;10.45;;
11064;SDS011;5585;52.530;7.320;2023-06-22T14:11:25;10.40;;;9.40;;
11064;SDS011;5585;52.530;7.320;2023-06-22T14:13:52;10.10;;;9.25;;
11064;SDS011;5585;52.530;7.320;2023-06-22T14:16:18;10.40;;;9.40;;
11064;SDS011;5585;52.530;7.320;2023-06-22T14:18:45;12.05;;;10.95;;
11064;SDS011;5585;52.530;7.320;2023-06-22T14:21:13;10.65;;;9.68;;
11064;SDS011;5585;52.530;7.320;2023-06-22T14:23:39;13.05;;;11.63;;
11064;SDS011;5585;52.530;7.320;2023-06-22T14:26:06;13.45;;;12.23;;
11064;SDS011;5585;52.530;7.320;2023-06-22T14:28:32;11.18;;;10.18;;
11064;SDS011;5585;52.530;7.320;2023-06-22T14:30:59;11.00;;;9.98;;
11064;SDS011;5585;52.530;7.320;2023-06-22T14:33:26;9.57;;;8.77;;
11064;SDS011;5585;52.530;7.320;2023-06-22T14:35:52;10.98;;;9.98;;
11064;SDS011;5585;52.530;7.320;2023-06-22T14:38:20;9.95;;;9.15;;
11064;SDS011;5585;52.530;7.320;2023-06-22T14:40:47;10.95;;;9.95;;
11064;SDS011;5585;52.530;7.320;2023-06-22T14:43:14;10.45;;;9.45;;
11064;SDS011;5585;52.530;7.320;2023-06-22T14:45:40;9.23;;;8.50;;
11064;SDS011;5585;52.530;7.320;2023-06-22T14:48:09;13.68;;;12.55;;